createdAt,value
2019-02-22T00:00:40.538Z,39.23
2019-02-22T00:03:09.751Z,39.93
2019-02-22T00:05:38.777Z,44.10
2019-02-22T00:08:08.080Z,42.83
2019-02-22T00:10:37.180Z,39.80
2019-02-22T00:13:06.089Z,37.20
2019-02-22T00:15:36.350Z,44.10
2019-02-22T00:18:08.017Z,40.50
2019-02-22T00:20:37.150Z,40.93
2019-02-22T00:23:06.250Z,40.20
2019-02-22T00:25:35.236Z,45.57
2019-02-22T00:28:04.334Z,43.43
2019-02-22T00:30:33.384Z,45.23
2019-02-22T00:33:02.375Z,42.93
2019-02-22T00:35:31.514Z,48.30
2019-02-22T00:38:00.741Z,47.93
2019-02-22T00:40:29.725Z,44.33
2019-02-22T00:42:58.727Z,50.87
2019-02-22T00:45:27.792Z,44.60
2019-02-22T00:47:58.920Z,48.00
2019-02-22T00:50:28.044Z,46.93
2019-02-22T00:52:57.379Z,46.97
2019-02-22T00:55:26.645Z,46.53
2019-02-22T00:57:55.786Z,46.13
2019-02-22T01:00:24.802Z,46.23
2019-02-22T01:02:53.851Z,43.60
2019-02-22T01:05:22.853Z,43.43
2019-02-22T01:07:51.998Z,38.77
2019-02-22T01:10:30.859Z,45.98
2019-02-22T01:12:51.827Z,44.50
2019-02-22T01:15:20.933Z,42.90
2019-02-22T01:17:49.991Z,39.37
2019-02-22T01:20:18.989Z,42.03
2019-02-22T01:22:48.084Z,40.03
2019-02-22T01:25:17.203Z,43.13
2019-02-22T01:27:46.119Z,42.33
2019-02-22T01:30:15.369Z,44.03
2019-02-22T01:32:45.549Z,44.47
2019-02-22T01:35:14.682Z,39.17
2019-02-22T01:37:43.828Z,36.70
2019-02-22T01:40:12.942Z,38.60
2019-02-22T01:42:42.102Z,40.17
2019-02-22T01:45:11.175Z,37.10
2019-02-22T01:47:40.386Z,44.50
2019-02-22T01:50:09.519Z,40.87
2019-02-22T01:52:38.572Z,41.33
2019-02-22T01:55:07.907Z,42.90
2019-02-22T01:57:36.882Z,45.27
2019-02-22T02:00:06.223Z,39.23
2019-02-22T02:02:35.292Z,38.47
2019-02-22T02:05:04.369Z,47.60
2019-02-22T02:07:33.425Z,40.50
2019-02-22T02:10:02.565Z,38.70
2019-02-22T02:12:32.936Z,41.17
2019-02-22T02:15:01.935Z,45.07
2019-02-22T02:17:31.014Z,41.07
2019-02-22T02:20:00.852Z,37.30
2019-02-22T02:22:30.092Z,35.80
2019-02-22T02:24:59.141Z,33.27
2019-02-22T02:27:28.218Z,33.17
2019-02-22T02:29:57.294Z,34.07
2019-02-22T02:32:26.290Z,34.07
2019-02-22T02:34:55.442Z,38.37
2019-02-22T02:37:24.510Z,40.67
2019-02-22T02:39:53.672Z,38.03
2019-02-22T02:42:22.703Z,34.30
2019-02-22T02:44:51.789Z,36.50
2019-02-22T02:47:20.847Z,38.80
2019-02-22T02:49:50.014Z,35.53
2019-02-22T02:52:18.990Z,38.17
2019-02-22T02:54:48.089Z,35.67
2019-02-22T02:57:17.358Z,34.30
2019-02-22T02:59:46.436Z,29.20
2019-02-22T03:02:29.959Z,32.27
2019-02-22T03:04:58.985Z,33.93
2019-02-22T03:07:41.927Z,31.70
2019-02-22T03:10:11.209Z,30.83
2019-02-22T03:12:40.179Z,31.10
2019-02-22T03:15:11.983Z,32.13
2019-02-22T03:17:41.123Z,30.50
2019-02-22T03:20:10.204Z,29.17
2019-02-22T03:22:39.301Z,34.13
2019-02-22T03:25:08.746Z,35.83
2019-02-22T03:27:37.823Z,37.27
2019-02-22T03:30:07.150Z,38.10
2019-02-22T03:32:36.323Z,35.70
2019-02-22T03:35:05.839Z,40.63
2019-02-22T03:37:35.231Z,40.80
2019-02-22T03:40:04.529Z,33.40
2019-02-22T03:42:33.608Z,37.03
2019-02-22T03:45:04.624Z,36.40
2019-02-22T03:47:35.358Z,38.83
2019-02-22T03:50:04.934Z,35.83
2019-02-22T03:52:38.183Z,38.37
2019-02-22T03:55:07.506Z,36.13
2019-02-22T03:57:36.820Z,35.27
2019-02-22T04:00:06.312Z,36.80
2019-02-22T04:02:35.776Z,38.50
2019-02-22T04:05:05.119Z,40.30
2019-02-22T04:07:34.248Z,45.27
2019-02-22T04:10:03.638Z,42.83
2019-02-22T04:12:32.754Z,40.43
2019-02-22T04:15:01.844Z,38.97
2019-02-22T04:17:30.853Z,35.77
2019-02-22T04:20:01.342Z,40.17
2019-02-22T04:22:30.454Z,38.98
2019-02-22T04:24:59.593Z,41.97
2019-02-22T04:27:28.676Z,37.67
2019-02-22T04:29:57.758Z,36.70
2019-02-22T04:32:26.818Z,33.97
2019-02-22T04:34:55.868Z,41.40
2019-02-22T04:37:24.942Z,35.47
2019-02-22T04:39:53.999Z,36.43
2019-02-22T04:42:23.002Z,33.43
2019-02-22T04:44:52.108Z,33.80
2019-02-22T04:47:21.255Z,35.60
2019-02-22T04:49:50.493Z,33.10
2019-02-22T04:52:19.512Z,31.57
2019-02-22T04:54:48.508Z,35.53
2019-02-22T04:57:17.572Z,35.17
2019-02-22T04:59:46.660Z,31.53
2019-02-22T05:02:34.828Z,32.37
2019-02-22T05:05:04.311Z,39.53
2019-02-22T05:07:33.500Z,35.37
2019-02-22T05:10:02.898Z,42.57
2019-02-22T05:12:31.893Z,39.67
2019-02-22T05:15:12.070Z,40.90
2019-02-22T05:17:31.624Z,37.00
2019-02-22T05:20:00.715Z,40.37
2019-02-22T05:22:29.772Z,41.47
2019-02-22T05:24:58.828Z,34.77
2019-02-22T05:27:28.409Z,44.93
2019-02-22T05:29:57.679Z,38.67
2019-02-22T05:32:26.827Z,53.77
2019-02-22T05:34:55.991Z,43.57
2019-02-22T05:37:24.900Z,42.17
2019-02-22T05:39:53.976Z,39.67
2019-02-22T05:42:23.437Z,39.73
2019-02-22T05:44:52.521Z,52.10
2019-02-22T05:47:21.610Z,37.73
2019-02-22T05:49:50.688Z,33.63
2019-02-22T05:52:19.616Z,35.40
2019-02-22T05:54:48.621Z,34.83
2019-02-22T05:57:17.874Z,37.30
2019-02-22T05:59:46.858Z,43.20
2019-02-22T06:02:16.711Z,43.87
2019-02-22T06:04:45.863Z,34.43
2019-02-22T06:07:15.007Z,41.73
2019-02-22T06:09:44.143Z,32.87
2019-02-22T06:12:13.258Z,34.73
2019-02-22T06:14:42.330Z,42.67
2019-02-22T06:17:14.681Z,32.57
2019-02-22T06:19:42.150Z,43.90
2019-02-22T06:22:14.006Z,29.87
2019-02-22T06:24:42.973Z,36.80
2019-02-22T06:27:11.979Z,38.23
2019-02-22T06:29:41.228Z,48.70
2019-02-22T06:32:10.306Z,44.07
2019-02-22T06:34:39.210Z,43.17
2019-02-22T06:37:08.325Z,42.93
2019-02-22T06:39:37.379Z,43.87
2019-02-22T06:42:06.362Z,41.67
2019-02-22T06:44:35.517Z,47.07
2019-02-22T06:47:04.865Z,38.70
2019-02-22T06:49:33.905Z,44.20
2019-02-22T06:52:02.861Z,41.90
2019-02-22T06:54:32.125Z,48.30
2019-02-22T06:57:03.023Z,45.47
2019-02-22T06:59:32.107Z,45.33
2019-02-22T07:02:01.227Z,43.10
2019-02-22T07:04:30.319Z,43.07
2019-02-22T07:06:59.339Z,39.23
2019-02-22T07:09:28.415Z,42.30
2019-02-22T07:12:24.692Z,39.53
2019-02-22T07:14:53.813Z,36.47
2019-02-22T07:17:22.902Z,31.40
2019-02-22T07:19:51.981Z,30.87
2019-02-22T07:22:21.055Z,32.03
2019-02-22T07:24:50.171Z,33.73
2019-02-22T07:27:19.220Z,31.67
2019-02-22T07:30:01.436Z,31.02
2019-02-22T07:32:30.897Z,33.00
2019-02-22T07:34:59.874Z,33.17
2019-02-22T07:37:28.986Z,31.00
2019-02-22T07:39:58.062Z,33.70
2019-02-22T07:42:27.136Z,29.53
2019-02-22T07:44:56.245Z,28.37
2019-02-22T07:47:25.318Z,32.37
2019-02-22T07:49:54.391Z,30.40
2019-02-22T07:52:23.455Z,30.30
2019-02-22T07:54:52.770Z,32.80
2019-02-22T07:57:21.772Z,32.90
2019-02-22T07:59:50.830Z,34.70
2019-02-22T08:02:20.121Z,32.50
2019-02-22T08:04:49.190Z,31.63
2019-02-22T08:07:18.272Z,30.90
2019-02-22T08:09:47.388Z,34.13
2019-02-22T08:12:16.396Z,35.57
2019-02-22T08:14:45.412Z,41.63
2019-02-22T08:17:14.784Z,36.28
2019-02-22T08:19:44.009Z,37.93
2019-02-22T08:22:13.115Z,38.67
2019-02-22T08:24:42.206Z,38.63
2019-02-22T08:27:11.320Z,39.93
2019-02-22T08:29:40.323Z,35.23
2019-02-22T08:32:09.389Z,34.57
2019-02-22T08:34:38.491Z,36.23
2019-02-22T08:37:07.579Z,37.23
2019-02-22T08:39:36.877Z,35.43
2019-02-22T08:42:05.943Z,34.37
2019-02-22T08:44:35.011Z,39.33
2019-02-22T08:47:04.075Z,41.77
2019-02-22T08:49:33.189Z,37.83
2019-02-22T08:52:03.693Z,43.13
2019-02-22T08:54:32.831Z,40.90
2019-02-22T08:57:01.819Z,44.70
2019-02-22T08:59:30.843Z,37.80
2019-02-22T09:01:59.872Z,35.87
2019-02-22T09:04:28.955Z,39.47
2019-02-22T09:06:58.082Z,39.33
2019-02-22T09:09:27.170Z,38.53
2019-02-22T09:11:57.766Z,41.63
2019-02-22T09:14:26.964Z,38.53
2019-02-22T09:16:56.114Z,38.67
2019-02-22T09:19:25.777Z,39.67
2019-02-22T09:21:54.899Z,47.13
2019-02-22T09:24:23.907Z,43.13
2019-02-22T09:26:52.982Z,45.60
2019-02-22T09:29:22.075Z,41.98
2019-02-22T09:31:51.137Z,43.50
2019-02-22T09:34:20.590Z,40.93
2019-02-22T09:36:49.610Z,42.00
2019-02-22T09:39:18.784Z,40.30
2019-02-22T09:41:47.752Z,40.70
2019-02-22T09:44:16.910Z,45.10
2019-02-22T09:46:46.012Z,44.40
2019-02-22T09:49:15.315Z,45.17
2019-02-22T09:51:44.532Z,42.03
2019-02-22T09:54:13.450Z,41.67
2019-02-22T09:56:42.532Z,37.97
2019-02-22T09:59:11.630Z,33.47
2019-02-22T10:01:40.720Z,38.60
2019-02-22T10:04:09.894Z,34.40
2019-02-22T10:06:38.952Z,30.90
2019-02-22T10:09:08.100Z,34.10
2019-02-22T10:11:37.236Z,33.17
2019-02-22T10:14:07.133Z,33.00
2019-02-22T10:16:36.436Z,31.67
2019-02-22T10:19:05.639Z,36.93
2019-02-22T10:21:34.593Z,33.33
2019-02-22T10:24:03.648Z,37.57
2019-02-22T10:26:32.695Z,36.10
2019-02-22T10:29:01.842Z,39.47
2019-02-22T10:31:30.920Z,35.77
2019-02-22T10:34:00.121Z,44.30
2019-02-22T10:36:29.509Z,37.37
2019-02-22T10:39:00.371Z,37.87
2019-02-22T10:41:30.489Z,41.27
2019-02-22T10:43:59.713Z,40.60
2019-02-22T10:46:28.809Z,40.30
2019-02-22T10:48:58.609Z,38.40
2019-02-22T10:51:27.616Z,39.17
2019-02-22T10:53:56.759Z,38.73
2019-02-22T10:56:28.242Z,40.77
2019-02-22T10:58:56.621Z,43.13
2019-02-22T11:01:25.700Z,42.50
2019-02-22T11:03:54.705Z,36.40
2019-02-22T11:06:23.784Z,38.13
2019-02-22T11:08:52.715Z,33.07
2019-02-22T11:11:21.712Z,36.63
2019-02-22T11:13:50.691Z,41.03
2019-02-22T11:16:19.767Z,40.63
2019-02-22T11:18:48.932Z,39.83
2019-02-22T11:21:17.999Z,37.67
2019-02-22T11:23:46.979Z,39.90
2019-02-22T11:26:16.010Z,43.77
2019-02-22T11:28:45.073Z,47.80
2019-02-22T11:31:15.072Z,46.07
2019-02-22T11:33:46.546Z,44.40
2019-02-22T11:36:15.548Z,47.27
2019-02-22T11:38:44.692Z,45.10
2019-02-22T11:41:13.626Z,47.87
2019-02-22T11:43:42.710Z,49.90
2019-02-22T11:46:11.711Z,45.37
2019-02-22T11:48:40.825Z,47.33
2019-02-22T11:51:09.935Z,48.63
2019-02-22T11:53:39.009Z,53.43
2019-02-22T11:56:08.350Z,52.53
2019-02-22T11:58:37.420Z,49.03
2019-02-22T12:01:08.211Z,49.37
2019-02-22T12:03:37.292Z,53.23
2019-02-22T12:06:06.368Z,47.17
2019-02-22T12:08:35.360Z,46.40
2019-02-22T12:11:04.422Z,46.43
2019-02-22T12:13:33.507Z,50.03
2019-02-22T12:16:02.550Z,56.23
2019-02-22T12:18:31.599Z,53.13
2019-02-22T12:21:00.601Z,48.87
2019-02-22T12:23:29.597Z,52.97
2019-02-22T12:25:58.563Z,50.17
2019-02-22T12:28:27.557Z,43.33
2019-02-22T12:30:56.656Z,49.40
2019-02-22T12:33:25.753Z,45.20
2019-02-22T12:35:54.871Z,48.50
2019-02-22T12:38:23.963Z,39.83
2019-02-22T12:40:53.464Z,42.53
2019-02-22T12:43:22.626Z,47.77
2019-02-22T12:45:51.812Z,42.00
2019-02-22T12:48:20.929Z,41.70
2019-02-22T12:50:49.995Z,46.13
2019-02-22T12:53:19.077Z,46.83
2019-02-22T12:55:48.174Z,42.00
2019-02-22T12:58:17.311Z,43.97
2019-02-22T13:00:46.417Z,42.90
2019-02-22T13:03:15.620Z,43.60
2019-02-22T13:05:44.813Z,46.33
2019-02-22T13:08:13.891Z,45.57
2019-02-22T13:10:43.161Z,45.77
2019-02-22T13:13:12.454Z,43.83
2019-02-22T13:15:41.506Z,47.47
2019-02-22T13:18:10.574Z,48.20
2019-02-22T13:20:39.616Z,43.70
2019-02-22T13:23:08.935Z,44.00
2019-02-22T13:25:38.011Z,43.40
2019-02-22T13:28:07.248Z,46.67
2019-02-22T13:30:36.406Z,47.90
2019-02-22T13:33:05.508Z,45.63
2019-02-22T13:35:34.669Z,45.27
2019-02-22T13:38:03.948Z,47.07
2019-02-22T13:40:33.086Z,45.67
2019-02-22T13:43:02.437Z,43.17
2019-02-22T13:45:31.432Z,40.83
2019-02-22T13:48:00.516Z,44.90
2019-02-22T13:50:29.602Z,45.83
2019-02-22T13:52:58.759Z,45.47
2019-02-22T13:55:27.758Z,43.80
2019-02-22T13:57:56.758Z,45.67
2019-02-22T14:00:25.838Z,43.90
2019-02-22T14:02:54.843Z,46.90
2019-02-22T14:05:23.907Z,49.57
2019-02-22T14:07:53.977Z,47.37
2019-02-22T14:10:23.428Z,45.07
2019-02-22T14:12:53.023Z,44.83
2019-02-22T14:15:22.190Z,47.37
2019-02-22T14:17:51.297Z,48.00
2019-02-22T14:20:20.368Z,53.10
2019-02-22T14:22:50.394Z,51.90
2019-02-22T14:25:19.478Z,50.67
2019-02-22T14:27:48.515Z,48.57
2019-02-22T14:30:17.592Z,57.80
2019-02-22T14:32:47.114Z,48.53
2019-02-22T14:35:16.773Z,47.03
2019-02-22T14:37:45.878Z,49.63
2019-02-22T14:40:15.004Z,48.77
2019-02-22T14:42:44.088Z,50.73
2019-02-22T14:45:13.492Z,50.07
2019-02-22T14:47:42.575Z,47.63
2019-02-22T14:50:13.361Z,49.33
2019-02-22T14:52:42.418Z,44.73
2019-02-22T14:55:11.817Z,45.43
2019-02-22T14:57:40.864Z,49.90
2019-02-22T15:00:12.693Z,52.70
2019-02-22T15:02:41.783Z,48.07
2019-02-22T15:05:11.487Z,40.70
2019-02-22T15:07:40.512Z,41.47
2019-02-22T15:10:09.995Z,44.60
2019-02-22T15:12:39.067Z,40.37
2019-02-22T15:15:08.868Z,38.73
2019-02-22T15:17:58.890Z,39.97
2019-02-22T15:20:27.891Z,39.13
2019-02-22T15:22:57.902Z,39.17
2019-02-22T15:25:26.972Z,39.33
2019-02-22T15:27:56.058Z,38.13
2019-02-22T15:30:25.127Z,39.23
2019-02-22T15:32:54.147Z,38.93
2019-02-22T15:35:23.317Z,40.70
2019-02-22T15:37:52.559Z,38.57
2019-02-22T15:40:21.718Z,35.63
2019-02-22T15:42:50.781Z,36.90
2019-02-22T15:45:20.156Z,30.23
2019-02-22T15:47:51.037Z,31.83
2019-02-22T15:50:20.195Z,29.07
2019-02-22T15:52:50.010Z,29.37
2019-02-22T15:55:19.091Z,33.07
2019-02-22T15:57:48.679Z,32.57
2019-02-22T16:00:21.375Z,30.43
2019-02-22T16:02:50.364Z,33.07
2019-02-22T16:05:23.057Z,24.47
2019-02-22T16:07:52.136Z,22.27
2019-02-22T16:10:21.205Z,26.00
2019-02-22T16:12:50.313Z,24.27
2019-02-22T16:15:19.883Z,24.10
2019-02-22T16:17:49.080Z,23.10
2019-02-22T16:20:18.226Z,23.47
2019-02-22T16:22:47.332Z,21.63
2019-02-22T16:25:19.646Z,21.52
2019-02-22T16:27:47.359Z,20.67
2019-02-22T16:30:18.264Z,24.70
2019-02-22T16:32:47.265Z,22.70
2019-02-22T16:35:16.395Z,22.17
2019-02-22T16:37:48.106Z,22.40
2019-02-22T16:40:17.271Z,19.87
2019-02-22T16:42:46.283Z,21.87
2019-02-22T16:45:15.376Z,21.77
2019-02-22T16:47:44.415Z,18.37
2019-02-22T16:50:13.519Z,22.17
2019-02-22T16:52:45.139Z,19.00
2019-02-22T16:55:14.319Z,19.53
2019-02-22T16:57:43.407Z,20.73
2019-02-22T17:00:13.385Z,21.13
2019-02-22T17:02:42.538Z,22.40
2019-02-22T17:05:13.226Z,20.63
2019-02-22T17:07:42.332Z,17.07
2019-02-22T17:10:11.623Z,20.77
2019-02-22T17:12:40.707Z,18.13
2019-02-22T17:15:13.707Z,21.17
2019-02-22T17:17:42.703Z,21.23
2019-02-22T17:20:11.880Z,19.17
2019-02-22T17:22:40.961Z,18.53
2019-02-22T17:25:11.686Z,19.53
2019-02-22T17:27:40.751Z,19.63
2019-02-22T17:30:11.445Z,21.73
2019-02-22T17:32:40.616Z,20.33
2019-02-22T17:35:09.694Z,19.50
2019-02-22T17:37:38.774Z,21.10
2019-02-22T17:40:10.842Z,19.23
2019-02-22T17:42:39.900Z,21.30
2019-02-22T17:45:09.068Z,27.93
2019-02-22T17:47:38.442Z,27.50
2019-02-22T17:50:07.878Z,26.00
2019-02-22T17:52:36.961Z,27.23
2019-02-22T17:55:06.655Z,28.83
2019-02-22T17:57:35.825Z,27.40
2019-02-22T18:00:05.662Z,30.47
2019-02-22T18:02:34.887Z,27.33
2019-02-22T18:05:04.126Z,24.77
2019-02-22T18:07:33.252Z,27.13
2019-02-22T18:10:02.594Z,24.10
2019-02-22T18:12:31.730Z,19.47
2019-02-22T18:15:00.657Z,16.50
2019-02-22T18:17:29.848Z,15.90
2019-02-22T18:19:58.882Z,16.73
2019-02-22T18:22:27.966Z,16.40
2019-02-22T18:24:58.045Z,16.60
2019-02-22T18:27:27.126Z,14.60
2019-02-22T18:29:56.214Z,16.07
2019-02-22T18:32:25.431Z,16.57
2019-02-22T18:34:54.556Z,17.27
2019-02-22T18:37:23.650Z,17.27
2019-02-22T18:39:52.932Z,13.87
2019-02-22T18:42:22.067Z,16.80
2019-02-22T18:44:51.229Z,17.00
2019-02-22T18:47:20.395Z,17.03
2019-02-22T18:49:49.387Z,17.63
2019-02-22T18:52:21.816Z,15.83
2019-02-22T18:54:50.881Z,16.30
2019-02-22T18:57:20.005Z,21.07
2019-02-22T18:59:49.271Z,17.97
2019-02-22T19:02:18.501Z,16.40
2019-02-22T19:04:47.505Z,15.10
2019-02-22T19:07:17.007Z,14.80
2019-02-22T19:09:49.123Z,15.20
2019-02-22T19:12:18.339Z,25.23
2019-02-22T19:14:47.319Z,20.20
2019-02-22T19:17:16.533Z,12.90
2019-02-22T19:19:45.839Z,13.63
2019-02-22T19:22:14.943Z,13.17
2019-02-22T19:24:44.291Z,12.27
2019-02-22T19:27:13.628Z,14.10
2019-02-22T19:29:42.756Z,14.80
2019-02-22T19:32:11.861Z,14.70
2019-02-22T19:34:41.219Z,14.53
2019-02-22T19:37:11.028Z,16.53
2019-02-22T19:39:40.068Z,15.10
2019-02-22T19:42:09.330Z,14.70
2019-02-22T19:44:38.390Z,22.17
2019-02-22T19:47:07.406Z,19.03
2019-02-22T19:49:36.520Z,22.97
2019-02-22T19:52:05.687Z,23.83
2019-02-22T19:54:34.822Z,24.13
2019-02-22T19:57:04.208Z,23.03
2019-02-22T19:59:33.304Z,24.77
2019-02-22T20:02:02.388Z,25.13
2019-02-22T20:04:36.871Z,24.53
2019-02-22T20:07:05.968Z,25.77
2019-02-22T20:09:35.017Z,28.13
2019-02-22T20:12:04.364Z,24.50
2019-02-22T20:14:33.374Z,29.90
2019-02-22T20:17:02.619Z,29.77
2019-02-22T20:19:31.909Z,30.00
2019-02-22T20:22:00.939Z,30.20
2019-02-22T20:24:29.970Z,30.93
2019-02-22T20:26:59.295Z,33.70
2019-02-22T20:29:28.473Z,32.10
2019-02-22T20:31:59.056Z,35.67
2019-02-22T20:34:28.323Z,38.20
2019-02-22T20:36:57.389Z,34.93
2019-02-22T20:39:26.529Z,37.03
2019-02-22T20:41:55.991Z,34.57
2019-02-22T20:44:25.061Z,35.60
2019-02-22T20:46:54.072Z,38.10
2019-02-22T20:49:23.306Z,36.23
2019-02-22T20:51:52.557Z,32.83
2019-02-22T20:54:21.626Z,37.07
2019-02-22T20:56:50.967Z,37.33
2019-02-22T20:59:21.778Z,36.47
2019-02-22T21:01:50.780Z,36.03
2019-02-22T21:04:20.135Z,33.20
2019-02-22T21:06:49.442Z,34.33
2019-02-22T21:09:18.867Z,34.53
2019-02-22T21:11:48.337Z,33.80
2019-02-22T21:14:17.555Z,35.73
2019-02-22T21:16:46.819Z,32.67
2019-02-22T21:19:16.231Z,33.63
2019-02-22T21:21:45.255Z,35.53
2019-02-22T21:24:14.292Z,34.27
2019-02-22T21:26:43.633Z,35.67
2019-02-22T21:29:12.715Z,35.37
2019-02-22T21:31:41.639Z,35.70
2019-02-22T21:34:11.068Z,35.30
2019-02-22T21:36:40.228Z,35.87
2019-02-22T21:39:09.457Z,34.50
2019-02-22T21:41:38.680Z,34.90
2019-02-22T21:44:07.850Z,34.60
2019-02-22T21:46:36.986Z,33.70
2019-02-22T21:49:06.401Z,34.10
2019-02-22T21:51:35.472Z,32.90
2019-02-22T21:54:04.578Z,35.70
2019-02-22T21:56:33.934Z,32.83
2019-02-22T21:59:03.034Z,33.70
2019-02-22T22:01:32.121Z,33.27
2019-02-22T22:04:01.484Z,35.70
2019-02-22T22:06:30.580Z,34.00
2019-02-22T22:08:59.557Z,35.30
2019-02-22T22:11:29.080Z,33.67
2019-02-22T22:13:58.033Z,34.33
2019-02-22T22:16:27.137Z,31.67
2019-02-22T22:18:56.367Z,31.57
2019-02-22T22:21:25.426Z,29.50
2019-02-22T22:23:54.509Z,30.00
2019-02-22T22:26:23.857Z,32.40
2019-02-22T22:28:52.941Z,33.40
2019-02-22T22:31:21.935Z,30.90
2019-02-22T22:33:51.350Z,30.67
2019-02-22T22:36:20.512Z,27.23
2019-02-22T22:38:49.607Z,26.80
2019-02-22T22:41:18.891Z,28.93
2019-02-22T22:43:48.031Z,30.27
2019-02-22T22:46:17.031Z,29.43
2019-02-22T22:48:50.385Z,26.37
2019-02-22T22:51:17.307Z,29.03
2019-02-22T22:53:46.240Z,27.47
2019-02-22T22:56:15.679Z,29.23
2019-02-22T22:58:44.683Z,30.97
2019-02-22T23:01:26.967Z,32.20
2019-02-22T23:03:56.067Z,32.10
2019-02-22T23:06:25.141Z,31.20
2019-02-22T23:08:54.355Z,31.87
2019-02-22T23:11:24.038Z,30.23
2019-02-22T23:13:53.180Z,32.43
2019-02-22T23:16:22.363Z,31.83
2019-02-22T23:19:01.545Z,34.47
2019-02-22T23:21:23.101Z,33.17
2019-02-22T23:23:52.207Z,29.63
2019-02-22T23:26:21.343Z,32.27
2019-02-22T23:28:50.732Z,31.50
2019-02-22T23:31:19.827Z,30.13
2019-02-22T23:33:48.823Z,31.57
2019-02-22T23:36:18.183Z,34.30
2019-02-22T23:38:47.304Z,38.07
2019-02-22T23:41:16.456Z,33.57
2019-02-22T23:43:45.777Z,35.37
2019-02-22T23:46:14.870Z,37.23
2019-02-22T23:48:43.946Z,36.73
2019-02-22T23:51:13.185Z,36.63
2019-02-22T23:53:42.180Z,38.57
2019-02-22T23:56:11.257Z,40.10
2019-02-22T23:58:40.443Z,38.07
